sensor_id;sensor_type;location;lat;lon;timestamp;temperature;humidity
12520;DHT22;6325;49.540;8.364;2022-09-30T00:02:15;10.00;99.90
12520;DHT22;6325;49.540;8.364;2022-09-30T00:04:44;10.50;99.90
12520;DHT22;6325;49.540;8.364;2022-09-30T00:07:11;10.20;99.90
12520;DHT22;6325;49.540;8.364;2022-09-30T00:09:38;10.90;99.90
12520;DHT22;6325;49.540;8.364;2022-09-30T00:12:05;10.10;99.90
12520;DHT22;6325;49.540;8.364;2022-09-30T00:14:32;10.50;99.90
12520;DHT22;6325;49.540;8.364;2022-09-30T00:16:59;10.50;99.90
12520;DHT22;6325;49.540;8.364;2022-09-30T00:19:26;11.00;99.90
12520;DHT22;6325;49.540;8.364;2022-09-30T00:21:55;10.60;99.90
12520;DHT22;6325;49.540;8.364;2022-09-30T00:24:21;9.90;99.90
12520;DHT22;6325;49.540;8.364;2022-09-30T00:26:48;10.70;99.90
12520;DHT22;6325;49.540;8.364;2022-09-30T00:29:15;10.40;99.90
12520;DHT22;6325;49.540;8.364;2022-09-30T00:31:43;11.10;99.90
12520;DHT22;6325;49.540;8.364;2022-09-30T00:34:10;10.50;99.90
12520;DHT22;6325;49.540;8.364;2022-09-30T00:36:40;11.10;99.90
12520;DHT22;6325;49.540;8.364;2022-09-30T00:39:11;10.70;99.90
12520;DHT22;6325;49.540;8.364;2022-09-30T00:41:39;10.20;99.90
12520;DHT22;6325;49.540;8.364;2022-09-30T00:44:43;10.70;99.90
12520;DHT22;6325;49.540;8.364;2022-09-30T00:50:04;10.50;99.90
12520;DHT22;6325;49.540;8.364;2022-09-30T00:52:33;11.00;99.90
12520;DHT22;6325;49.540;8.364;2022-09-30T00:55:03;10.40;99.90
12520;DHT22;6325;49.540;8.364;2022-09-30T00:57:33;10.40;99.90
12520;DHT22;6325;49.540;8.364;2022-09-30T01:00:01;10.40;99.90
12520;DHT22;6325;49.540;8.364;2022-09-30T01:02:29;10.40;99.90
12520;DHT22;6325;49.540;8.364;2022-09-30T01:04:56;10.40;99.90
12520;DHT22;6325;49.540;8.364;2022-09-30T01:07:23;10.50;99.90
12520;DHT22;6325;49.540;8.364;2022-09-30T01:09:51;10.20;99.90
12520;DHT22;6325;49.540;8.364;2022-09-30T01:12:22;10.30;99.90
12520;DHT22;6325;49.540;8.364;2022-09-30T01:14:51;10.70;99.90
12520;DHT22;6325;49.540;8.364;2022-09-30T01:17:32;10.40;99.90
12520;DHT22;6325;49.540;8.364;2022-09-30T01:26:17;10.20;99.90
12520;DHT22;6325;49.540;8.364;2022-09-30T01:29:11;10.30;99.90
12520;DHT22;6325;49.540;8.364;2022-09-30T01:31:50;10.30;99.90
12520;DHT22;6325;49.540;8.364;2022-09-30T01:34:28;10.20;99.90
12520;DHT22;6325;49.540;8.364;2022-09-30T01:37:07;9.80;99.90
12520;DHT22;6325;49.540;8.364;2022-09-30T01:39:40;10.50;99.90
12520;DHT22;6325;49.540;8.364;2022-09-30T01:42:15;10.90;99.90
12520;DHT22;6325;49.540;8.364;2022-09-30T01:44:51;10.30;99.90
12520;DHT22;6325;49.540;8.364;2022-09-30T01:47:26;10.30;99.90
12520;DHT22;6325;49.540;8.364;2022-09-30T01:49:59;10.50;99.90
12520;DHT22;6325;49.540;8.364;2022-09-30T01:52:34;10.40;99.90
12520;DHT22;6325;49.540;8.364;2022-09-30T01:55:07;10.20;99.90
12520;DHT22;6325;49.540;8.364;2022-09-30T01:57:44;10.20;99.90
12520;DHT22;6325;49.540;8.364;2022-09-30T02:00:13;10.20;99.90
12520;DHT22;6325;49.540;8.364;2022-09-30T02:02:46;9.90;99.90
12520;DHT22;6325;49.540;8.364;2022-09-30T02:05:18;10.50;99.90
12520;DHT22;6325;49.540;8.364;2022-09-30T02:07:50;10.60;99.90
12520;DHT22;6325;49.540;8.364;2022-09-30T02:10:22;10.50;99.90
12520;DHT22;6325;49.540;8.364;2022-09-30T02:12:52;10.20;99.90
12520;DHT22;6325;49.540;8.364;2022-09-30T02:15:23;10.30;99.90
12520;DHT22;6325;49.540;8.364;2022-09-30T02:17:55;10.40;99.90
12520;DHT22;6325;49.540;8.364;2022-09-30T02:20:26;10.20;99.90
12520;DHT22;6325;49.540;8.364;2022-09-30T02:22:58;10.40;99.90
12520;DHT22;6325;49.540;8.364;2022-09-30T02:25:30;10.70;99.90
12520;DHT22;6325;49.540;8.364;2022-09-30T02:28:02;10.50;99.90
12520;DHT22;6325;49.540;8.364;2022-09-30T02:30:30;10.30;99.90
12520;DHT22;6325;49.540;8.364;2022-09-30T02:33:01;10.50;99.90
12520;DHT22;6325;49.540;8.364;2022-09-30T02:35:34;9.60;99.90
12520;DHT22;6325;49.540;8.364;2022-09-30T02:38:04;10.10;99.90
12520;DHT22;6325;49.540;8.364;2022-09-30T02:40:37;10.10;99.90
12520;DHT22;6325;49.540;8.364;2022-09-30T02:43:08;9.50;99.90
12520;DHT22;6325;49.540;8.364;2022-09-30T02:45:43;10.10;99.90
12520;DHT22;6325;49.540;8.364;2022-09-30T02:48:23;10.70;99.90
12520;DHT22;6325;49.540;8.364;2022-09-30T02:50:56;10.20;99.90
12520;DHT22;6325;49.540;8.364;2022-09-30T02:53:30;10.00;99.90
12520;DHT22;6325;49.540;8.364;2022-09-30T02:56:15;10.40;99.90
12520;DHT22;6325;49.540;8.364;2022-09-30T02:58:44;9.90;99.90
12520;DHT22;6325;49.540;8.364;2022-09-30T03:01:14;10.10;99.90
12520;DHT22;6325;49.540;8.364;2022-09-30T03:03:46;10.00;99.90
12520;DHT22;6325;49.540;8.364;2022-09-30T03:06:15;10.30;99.90
12520;DHT22;6325;49.540;8.364;2022-09-30T03:08:43;9.90;99.90
12520;DHT22;6325;49.540;8.364;2022-09-30T03:11:14;9.80;99.90
12520;DHT22;6325;49.540;8.364;2022-09-30T03:17:06;9.70;99.90
12520;DHT22;6325;49.540;8.364;2022-09-30T03:19:51;9.90;99.90
12520;DHT22;6325;49.540;8.364;2022-09-30T03:22:33;10.10;99.90
12520;DHT22;6325;49.540;8.364;2022-09-30T03:25:22;10.00;99.90
12520;DHT22;6325;49.540;8.364;2022-09-30T03:28:00;9.80;99.90
12520;DHT22;6325;49.540;8.364;2022-09-30T03:30:32;9.70;99.90
12520;DHT22;6325;49.540;8.364;2022-09-30T03:33:08;10.20;99.90
12520;DHT22;6325;49.540;8.364;2022-09-30T03:35:44;9.80;99.90
12520;DHT22;6325;49.540;8.364;2022-09-30T03:38:22;9.70;99.90
12520;DHT22;6325;49.540;8.364;2022-09-30T03:40:56;9.50;99.90
12520;DHT22;6325;49.540;8.364;2022-09-30T03:43:28;9.30;99.90
12520;DHT22;6325;49.540;8.364;2022-09-30T03:46:02;9.60;99.90
12520;DHT22;6325;49.540;8.364;2022-09-30T03:48:32;9.50;99.90
12520;DHT22;6325;49.540;8.364;2022-09-30T03:51:03;9.50;99.90
12520;DHT22;6325;49.540;8.364;2022-09-30T03:53:37;9.50;99.90
12520;DHT22;6325;49.540;8.364;2022-09-30T03:56:04;9.60;99.90
12520;DHT22;6325;49.540;8.364;2022-09-30T03:58:32;9.40;99.90
12520;DHT22;6325;49.540;8.364;2022-09-30T04:01:00;9.40;99.90
12520;DHT22;6325;49.540;8.364;2022-09-30T04:03:27;9.90;99.90
12520;DHT22;6325;49.540;8.364;2022-09-30T04:05:54;8.70;99.90
12520;DHT22;6325;49.540;8.364;2022-09-30T04:08:22;9.20;99.90
12520;DHT22;6325;49.540;8.364;2022-09-30T04:10:50;9.10;99.90
12520;DHT22;6325;49.540;8.364;2022-09-30T04:13:17;8.90;99.90
12520;DHT22;6325;49.540;8.364;2022-09-30T04:15:52;9.00;99.90
12520;DHT22;6325;49.540;8.364;2022-09-30T04:18:20;9.10;99.90
12520;DHT22;6325;49.540;8.364;2022-09-30T04:20:47;8.70;99.90
12520;DHT22;6325;49.540;8.364;2022-09-30T04:23:13;9.00;99.90
12520;DHT22;6325;49.540;8.364;2022-09-30T04:25:42;9.00;99.90
12520;DHT22;6325;49.540;8.364;2022-09-30T04:28:09;9.10;99.90
12520;DHT22;6325;49.540;8.364;2022-09-30T04:30:36;8.90;99.90
12520;DHT22;6325;49.540;8.364;2022-09-30T04:33:03;8.30;99.90
12520;DHT22;6325;49.540;8.364;2022-09-30T04:35:30;9.00;99.90
12520;DHT22;6325;49.540;8.364;2022-09-30T04:37:57;9.10;99.90
12520;DHT22;6325;49.540;8.364;2022-09-30T04:40:26;8.40;99.90
12520;DHT22;6325;49.540;8.364;2022-09-30T04:42:56;8.70;99.90
12520;DHT22;6325;49.540;8.364;2022-09-30T04:45:23;8.80;99.90
12520;DHT22;6325;49.540;8.364;2022-09-30T04:47:51;9.10;99.90
12520;DHT22;6325;49.540;8.364;2022-09-30T04:50:18;8.10;99.90
12520;DHT22;6325;49.540;8.364;2022-09-30T04:52:45;9.20;99.90
12520;DHT22;6325;49.540;8.364;2022-09-30T04:55:12;8.90;99.90
12520;DHT22;6325;49.540;8.364;2022-09-30T04:57:42;8.90;99.90
12520;DHT22;6325;49.540;8.364;2022-09-30T05:00:12;8.70;99.90
12520;DHT22;6325;49.540;8.364;2022-09-30T05:02:41;8.40;99.90
12520;DHT22;6325;49.540;8.364;2022-09-30T05:05:09;8.70;99.90
12520;DHT22;6325;49.540;8.364;2022-09-30T05:07:36;8.20;99.90
12520;DHT22;6325;49.540;8.364;2022-09-30T05:10:03;8.20;99.90
12520;DHT22;6325;49.540;8.364;2022-09-30T05:12:30;8.40;99.90
12520;DHT22;6325;49.540;8.364;2022-09-30T05:14:57;8.20;99.90
12520;DHT22;6325;49.540;8.364;2022-09-30T05:17:28;8.20;99.90
12520;DHT22;6325;49.540;8.364;2022-09-30T05:19:55;8.40;99.90
12520;DHT22;6325;49.540;8.364;2022-09-30T05:22:23;8.60;99.90
12520;DHT22;6325;49.540;8.364;2022-09-30T05:24:50;8.80;99.90
12520;DHT22;6325;49.540;8.364;2022-09-30T05:27:17;8.30;99.90
12520;DHT22;6325;49.540;8.364;2022-09-30T05:29:44;8.30;99.90
12520;DHT22;6325;49.540;8.364;2022-09-30T05:32:11;8.20;99.90
12520;DHT22;6325;49.540;8.364;2022-09-30T05:34:40;7.80;99.90
12520;DHT22;6325;49.540;8.364;2022-09-30T05:37:08;7.70;99.90
12520;DHT22;6325;49.540;8.364;2022-09-30T05:39:35;8.50;99.90
12520;DHT22;6325;49.540;8.364;2022-09-30T05:42:03;8.60;99.90
12520;DHT22;6325;49.540;8.364;2022-09-30T05:44:30;8.20;99.90
12520;DHT22;6325;49.540;8.364;2022-09-30T05:46:57;8.00;99.90
12520;DHT22;6325;49.540;8.364;2022-09-30T05:49:24;7.80;99.90
12520;DHT22;6325;49.540;8.364;2022-09-30T05:51:52;7.50;99.90
12520;DHT22;6325;49.540;8.364;2022-09-30T05:54:20;7.50;99.90
12520;DHT22;6325;49.540;8.364;2022-09-30T05:56:47;8.50;99.90
12520;DHT22;6325;49.540;8.364;2022-09-30T05:59:13;8.50;99.90
12520;DHT22;6325;49.540;8.364;2022-09-30T06:01:40;8.30;99.90
12520;DHT22;6325;49.540;8.364;2022-09-30T06:04:07;8.60;99.90
12520;DHT22;6325;49.540;8.364;2022-09-30T06:06:34;8.50;99.90
12520;DHT22;6325;49.540;8.364;2022-09-30T06:09:03;8.50;99.90
12520;DHT22;6325;49.540;8.364;2022-09-30T06:11:30;7.50;99.90
12520;DHT22;6325;49.540;8.364;2022-09-30T06:13:57;8.30;99.90
12520;DHT22;6325;49.540;8.364;2022-09-30T06:16:24;8.40;99.90
12520;DHT22;6325;49.540;8.364;2022-09-30T06:18:51;8.30;99.90
12520;DHT22;6325;49.540;8.364;2022-09-30T06:21:18;8.50;99.90
12520;DHT22;6325;49.540;8.364;2022-09-30T06:23:47;8.20;99.90
12520;DHT22;6325;49.540;8.364;2022-09-30T06:26:15;7.60;99.90
12520;DHT22;6325;49.540;8.364;2022-09-30T06:28:42;8.50;99.90
12520;DHT22;6325;49.540;8.364;2022-09-30T06:31:09;8.40;99.90
12520;DHT22;6325;49.540;8.364;2022-09-30T06:33:37;8.00;99.90
12520;DHT22;6325;49.540;8.364;2022-09-30T06:36:04;8.70;99.90
12520;DHT22;6325;49.540;8.364;2022-09-30T06:38:32;8.60;99.90
12520;DHT22;6325;49.540;8.364;2022-09-30T06:41:01;8.30;99.90
12520;DHT22;6325;49.540;8.364;2022-09-30T06:43:30;8.40;99.90
12520;DHT22;6325;49.540;8.364;2022-09-30T06:45:57;8.30;99.90
12520;DHT22;6325;49.540;8.364;2022-09-30T06:48:25;8.50;99.90
12520;DHT22;6325;49.540;8.364;2022-09-30T06:50:56;8.10;99.90
12520;DHT22;6325;49.540;8.364;2022-09-30T06:53:24;8.70;99.90
12520;DHT22;6325;49.540;8.364;2022-09-30T06:55:54;8.30;99.90
12520;DHT22;6325;49.540;8.364;2022-09-30T06:58:21;8.10;99.90
12520;DHT22;6325;49.540;8.364;2022-09-30T07:00:57;9.00;99.90
12520;DHT22;6325;49.540;8.364;2022-09-30T07:03:27;8.50;99.90
12520;DHT22;6325;49.540;8.364;2022-09-30T07:05:56;8.60;99.90
12520;DHT22;6325;49.540;8.364;2022-09-30T07:08:24;8.80;99.90
12520;DHT22;6325;49.540;8.364;2022-09-30T07:10:53;8.60;99.90
12520;DHT22;6325;49.540;8.364;2022-09-30T07:13:21;8.80;99.90
12520;DHT22;6325;49.540;8.364;2022-09-30T07:15:47;9.10;99.90
12520;DHT22;6325;49.540;8.364;2022-09-30T07:18:20;8.90;99.90
12520;DHT22;6325;49.540;8.364;2022-09-30T07:20:48;9.20;99.90
12520;DHT22;6325;49.540;8.364;2022-09-30T07:23:18;9.30;99.90
12520;DHT22;6325;49.540;8.364;2022-09-30T07:25:49;9.20;99.90
12520;DHT22;6325;49.540;8.364;2022-09-30T07:28:18;9.30;99.90
12520;DHT22;6325;49.540;8.364;2022-09-30T07:30:45;9.60;99.90
12520;DHT22;6325;49.540;8.364;2022-09-30T07:33:12;9.60;99.90
12520;DHT22;6325;49.540;8.364;2022-09-30T07:35:51;9.40;99.90
12520;DHT22;6325;49.540;8.364;2022-09-30T07:38:19;9.50;99.90
12520;DHT22;6325;49.540;8.364;2022-09-30T07:40:54;9.50;99.90
12520;DHT22;6325;49.540;8.364;2022-09-30T07:43:23;9.80;99.90
12520;DHT22;6325;49.540;8.364;2022-09-30T07:45:50;9.90;99.90
12520;DHT22;6325;49.540;8.364;2022-09-30T07:48:18;9.90;99.90
12520;DHT22;6325;49.540;8.364;2022-09-30T07:51:04;10.10;99.90
12520;DHT22;6325;49.540;8.364;2022-09-30T07:53:31;10.50;99.90
12520;DHT22;6325;49.540;8.364;2022-09-30T07:56:01;10.00;99.90
12520;DHT22;6325;49.540;8.364;2022-09-30T07:58:29;10.40;99.90
12520;DHT22;6325;49.540;8.364;2022-09-30T08:00:55;10.30;99.90
12520;DHT22;6325;49.540;8.364;2022-09-30T08:03:22;10.60;99.90
12520;DHT22;6325;49.540;8.364;2022-09-30T08:05:49;11.00;99.90
12520;DHT22;6325;49.540;8.364;2022-09-30T08:08:18;10.60;99.90
12520;DHT22;6325;49.540;8.364;2022-09-30T08:10:45;10.30;99.90
12520;DHT22;6325;49.540;8.364;2022-09-30T08:13:12;9.80;99.90
12520;DHT22;6325;49.540;8.364;2022-09-30T08:15:41;10.60;99.90
12520;DHT22;6325;49.540;8.364;2022-09-30T08:18:08;11.00;99.90
12520;DHT22;6325;49.540;8.364;2022-09-30T08:20:35;10.80;99.90
12520;DHT22;6325;49.540;8.364;2022-09-30T08:23:02;11.00;99.90
12520;DHT22;6325;49.540;8.364;2022-09-30T08:25:30;10.70;99.90
12520;DHT22;6325;49.540;8.364;2022-09-30T08:27:57;10.70;99.90
12520;DHT22;6325;49.540;8.364;2022-09-30T08:30:24;10.80;99.90
12520;DHT22;6325;49.540;8.364;2022-09-30T08:32:53;10.80;99.90
12520;DHT22;6325;49.540;8.364;2022-09-30T08:35:20;10.80;99.90
12520;DHT22;6325;49.540;8.364;2022-09-30T08:37:47;10.90;99.90
12520;DHT22;6325;49.540;8.364;2022-09-30T08:40:18;11.70;99.90
12520;DHT22;6325;49.540;8.364;2022-09-30T08:42:58;10.80;99.90
12520;DHT22;6325;49.540;8.364;2022-09-30T08:45:35;11.10;99.90
12520;DHT22;6325;49.540;8.364;2022-09-30T08:50:58;11.10;99.90
12520;DHT22;6325;49.540;8.364;2022-09-30T08:53:29;11.40;99.90
12520;DHT22;6325;49.540;8.364;2022-09-30T08:55:58;11.50;99.90
12520;DHT22;6325;49.540;8.364;2022-09-30T08:58:30;11.50;99.90
12520;DHT22;6325;49.540;8.364;2022-09-30T09:01:10;11.60;99.90
12520;DHT22;6325;49.540;8.364;2022-09-30T09:03:38;12.30;99.90
12520;DHT22;6325;49.540;8.364;2022-09-30T09:06:17;11.40;99.90
12520;DHT22;6325;49.540;8.364;2022-09-30T09:09:02;12.00;99.90
12520;DHT22;6325;49.540;8.364;2022-09-30T09:11:42;11.50;99.90
12520;DHT22;6325;49.540;8.364;2022-09-30T09:14:22;12.10;99.90
12520;DHT22;6325;49.540;8.364;2022-09-30T09:17:01;11.90;99.90
12520;DHT22;6325;49.540;8.364;2022-09-30T09:19:36;11.50;99.90
12520;DHT22;6325;49.540;8.364;2022-09-30T09:22:08;12.20;99.90
12520;DHT22;6325;49.540;8.364;2022-09-30T09:24:38;12.50;99.90
12520;DHT22;6325;49.540;8.364;2022-09-30T09:27:19;12.70;99.90
12520;DHT22;6325;49.540;8.364;2022-09-30T09:29:58;12.10;99.90
12520;DHT22;6325;49.540;8.364;2022-09-30T09:32:29;13.10;99.90
12520;DHT22;6325;49.540;8.364;2022-09-30T09:34:58;13.00;99.90
12520;DHT22;6325;49.540;8.364;2022-09-30T09:37:33;12.40;99.90
12520;DHT22;6325;49.540;8.364;2022-09-30T09:40:25;12.60;99.90
12520;DHT22;6325;49.540;8.364;2022-09-30T09:43:00;13.20;99.90
12520;DHT22;6325;49.540;8.364;2022-09-30T09:45:37;12.60;99.90
12520;DHT22;6325;49.540;8.364;2022-09-30T09:48:07;13.30;99.90
12520;DHT22;6325;49.540;8.364;2022-09-30T09:50:41;13.30;99.90
12520;DHT22;6325;49.540;8.364;2022-09-30T09:53:23;13.00;99.90
12520;DHT22;6325;49.540;8.364;2022-09-30T09:55:55;13.50;99.90
12520;DHT22;6325;49.540;8.364;2022-09-30T09:58:25;13.50;99.90
12520;DHT22;6325;49.540;8.364;2022-09-30T10:01:08;13.10;99.90
12520;DHT22;6325;49.540;8.364;2022-09-30T10:04:06;13.90;99.90
12520;DHT22;6325;49.540;8.364;2022-09-30T10:06:43;13.60;99.90
12520;DHT22;6325;49.540;8.364;2022-09-30T10:09:28;14.00;99.90
12520;DHT22;6325;49.540;8.364;2022-09-30T10:15:02;14.70;99.90
12520;DHT22;6325;49.540;8.364;2022-09-30T10:17:32;14.30;99.90
12520;DHT22;6325;49.540;8.364;2022-09-30T10:20:03;14.30;99.90
12520;DHT22;6325;49.540;8.364;2022-09-30T10:22:33;14.50;99.90
12520;DHT22;6325;49.540;8.364;2022-09-30T10:25:22;14.80;99.90
12520;DHT22;6325;49.540;8.364;2022-09-30T10:27:53;15.30;99.90
12520;DHT22;6325;49.540;8.364;2022-09-30T10:30:38;14.80;99.90
12520;DHT22;6325;49.540;8.364;2022-09-30T10:33:19;14.70;99.90
12520;DHT22;6325;49.540;8.364;2022-09-30T10:35:58;16.00;99.90
12520;DHT22;6325;49.540;8.364;2022-09-30T10:38:27;15.40;99.90
12520;DHT22;6325;49.540;8.364;2022-09-30T10:40:57;15.70;99.90
12520;DHT22;6325;49.540;8.364;2022-09-30T10:43:26;15.00;99.90
12520;DHT22;6325;49.540;8.364;2022-09-30T10:45:56;15.60;99.90
12520;DHT22;6325;49.540;8.364;2022-09-30T10:48:33;15.60;99.90
12520;DHT22;6325;49.540;8.364;2022-09-30T10:51:00;15.40;99.90
12520;DHT22;6325;49.540;8.364;2022-09-30T10:53:31;16.00;99.90
12520;DHT22;6325;49.540;8.364;2022-09-30T10:55:58;16.00;99.90
12520;DHT22;6325;49.540;8.364;2022-09-30T10:58:40;15.70;99.90
12520;DHT22;6325;49.540;8.364;2022-09-30T11:01:16;15.20;99.90
12520;DHT22;6325;49.540;8.364;2022-09-30T11:03:55;15.00;99.90
12520;DHT22;6325;49.540;8.364;2022-09-30T11:06:23;15.40;99.90
12520;DHT22;6325;49.540;8.364;2022-09-30T11:08:55;15.70;99.90
12520;DHT22;6325;49.540;8.364;2022-09-30T11:11:27;15.30;99.90
12520;DHT22;6325;49.540;8.364;2022-09-30T11:14:00;15.90;99.90
12520;DHT22;6325;49.540;8.364;2022-09-30T11:16:33;15.80;99.90
12520;DHT22;6325;49.540;8.364;2022-09-30T11:19:09;16.40;99.90
12520;DHT22;6325;49.540;8.364;2022-09-30T11:21:40;15.80;99.90
12520;DHT22;6325;49.540;8.364;2022-09-30T11:24:15;16.10;99.90
12520;DHT22;6325;49.540;8.364;2022-09-30T11:26:51;16.30;99.90
12520;DHT22;6325;49.540;8.364;2022-09-30T11:29:35;16.50;99.90
12520;DHT22;6325;49.540;8.364;2022-09-30T11:32:12;16.80;99.90
12520;DHT22;6325;49.540;8.364;2022-09-30T11:34:56;16.70;99.90
12520;DHT22;6325;49.540;8.364;2022-09-30T11:37:31;16.80;99.90
12520;DHT22;6325;49.540;8.364;2022-09-30T11:40:13;17.10;99.90
12520;DHT22;6325;49.540;8.364;2022-09-30T11:42:47;17.10;99.90
12520;DHT22;6325;49.540;8.364;2022-09-30T11:45:28;16.60;99.90
12520;DHT22;6325;49.540;8.364;2022-09-30T11:48:16;16.80;99.90
12520;DHT22;6325;49.540;8.364;2022-09-30T11:50:54;17.60;99.90
12520;DHT22;6325;49.540;8.364;2022-09-30T11:53:33;17.30;99.90
12520;DHT22;6325;49.540;8.364;2022-09-30T11:56:11;17.40;99.90
12520;DHT22;6325;49.540;8.364;2022-09-30T11:58:46;17.20;99.90
12520;DHT22;6325;49.540;8.364;2022-09-30T12:01:18;17.90;99.90
12520;DHT22;6325;49.540;8.364;2022-09-30T12:03:53;17.40;99.90
12520;DHT22;6325;49.540;8.364;2022-09-30T12:06:30;17.70;99.90
12520;DHT22;6325;49.540;8.364;2022-09-30T12:09:05;18.20;99.90
12520;DHT22;6325;49.540;8.364;2022-09-30T12:11:38;17.80;99.90
12520;DHT22;6325;49.540;8.364;2022-09-30T12:14:13;17.80;99.90
12520;DHT22;6325;49.540;8.364;2022-09-30T12:16:44;17.40;99.90
12520;DHT22;6325;49.540;8.364;2022-09-30T12:19:14;17.90;99.90
12520;DHT22;6325;49.540;8.364;2022-09-30T12:21:49;18.20;99.90
12520;DHT22;6325;49.540;8.364;2022-09-30T12:24:23;18.40;99.90
12520;DHT22;6325;49.540;8.364;2022-09-30T12:26:51;18.60;99.90
12520;DHT22;6325;49.540;8.364;2022-09-30T12:29:23;18.50;99.90
12520;DHT22;6325;49.540;8.364;2022-09-30T12:32:36;18.30;99.90
12520;DHT22;6325;49.540;8.364;2022-09-30T12:35:29;18.30;99.90
12520;DHT22;6325;49.540;8.364;2022-09-30T12:38:17;18.80;99.90
12520;DHT22;6325;49.540;8.364;2022-09-30T12:41:06;19.30;99.90
12520;DHT22;6325;49.540;8.364;2022-09-30T12:44:22;19.10;99.90
12520;DHT22;6325;49.540;8.364;2022-09-30T12:47:01;19.50;99.90
12520;DHT22;6325;49.540;8.364;2022-09-30T12:49:36;19.40;99.90
12520;DHT22;6325;49.540;8.364;2022-09-30T12:52:10;18.90;99.90
12520;DHT22;6325;49.540;8.364;2022-09-30T12:54:41;19.00;99.90
12520;DHT22;6325;49.540;8.364;2022-09-30T12:57:10;19.00;99.90
12520;DHT22;6325;49.540;8.364;2022-09-30T12:59:43;19.00;99.90
12520;DHT22;6325;49.540;8.364;2022-09-30T13:02:27;19.00;99.90
12520;DHT22;6325;49.540;8.364;2022-09-30T13:08:08;18.30;99.90
12520;DHT22;6325;49.540;8.364;2022-09-30T13:10:45;18.50;99.90
12520;DHT22;6325;49.540;8.364;2022-09-30T13:13:20;18.80;99.90
12520;DHT22;6325;49.540;8.364;2022-09-30T13:15:49;19.90;99.90
12520;DHT22;6325;49.540;8.364;2022-09-30T13:21:22;19.00;99.90
12520;DHT22;6325;49.540;8.364;2022-09-30T13:23:50;19.40;99.90
12520;DHT22;6325;49.540;8.364;2022-09-30T13:26:37;19.00;99.90
12520;DHT22;6325;49.540;8.364;2022-09-30T13:32:08;19.10;99.90
12520;DHT22;6325;49.540;8.364;2022-09-30T13:34:54;18.70;99.90
12520;DHT22;6325;49.540;8.364;2022-09-30T13:37:39;18.40;99.90
12520;DHT22;6325;49.540;8.364;2022-09-30T13:40:19;18.30;99.90
12520;DHT22;6325;49.540;8.364;2022-09-30T13:42:52;18.20;99.90
12520;DHT22;6325;49.540;8.364;2022-09-30T13:45:28;18.10;99.90
12520;DHT22;6325;49.540;8.364;2022-09-30T13:48:04;17.40;99.90
12520;DHT22;6325;49.540;8.364;2022-09-30T13:50:42;17.80;99.90
12520;DHT22;6325;49.540;8.364;2022-09-30T13:53:20;17.40;99.90
12520;DHT22;6325;49.540;8.364;2022-09-30T13:55:49;17.90;99.90
12520;DHT22;6325;49.540;8.364;2022-09-30T13:58:43;18.00;99.90
12520;DHT22;6325;49.540;8.364;2022-09-30T14:01:23;17.90;99.90
12520;DHT22;6325;49.540;8.364;2022-09-30T14:04:10;17.80;99.90
12520;DHT22;6325;49.540;8.364;2022-09-30T14:06:47;18.80;99.90
12520;DHT22;6325;49.540;8.364;2022-09-30T14:09:36;18.00;99.90
12520;DHT22;6325;49.540;8.364;2022-09-30T14:12:28;19.00;99.90
12520;DHT22;6325;49.540;8.364;2022-09-30T14:15:16;19.00;99.90
12520;DHT22;6325;49.540;8.364;2022-09-30T14:21:26;18.90;99.90
12520;DHT22;6325;49.540;8.364;2022-09-30T14:23:56;18.70;99.90
12520;DHT22;6325;49.540;8.364;2022-09-30T14:26:41;18.50;99.90
12520;DHT22;6325;49.540;8.364;2022-09-30T14:29:16;18.60;99.90
12520;DHT22;6325;49.540;8.364;2022-09-30T14:31:45;18.80;99.90
12520;DHT22;6325;49.540;8.364;2022-09-30T14:34:15;18.80;99.90
12520;DHT22;6325;49.540;8.364;2022-09-30T14:36:45;18.80;99.90
12520;DHT22;6325;49.540;8.364;2022-09-30T14:39:17;18.60;99.90
12520;DHT22;6325;49.540;8.364;2022-09-30T14:41:49;19.30;99.90
12520;DHT22;6325;49.540;8.364;2022-09-30T14:44:17;19.10;99.90
12520;DHT22;6325;49.540;8.364;2022-09-30T14:46:48;18.60;99.90
12520;DHT22;6325;49.540;8.364;2022-09-30T14:49:18;18.60;99.90
12520;DHT22;6325;49.540;8.364;2022-09-30T14:51:47;18.50;99.90
12520;DHT22;6325;49.540;8.364;2022-09-30T14:54:17;18.80;99.90
12520;DHT22;6325;49.540;8.364;2022-09-30T14:56:44;18.30;99.90
12520;DHT22;6325;49.540;8.364;2022-09-30T14:59:16;18.80;99.90
12520;DHT22;6325;49.540;8.364;2022-09-30T15:01:47;19.10;99.90
12520;DHT22;6325;49.540;8.364;2022-09-30T15:04:18;19.00;99.90
12520;DHT22;6325;49.540;8.364;2022-09-30T15:06:48;19.00;99.90
12520;DHT22;6325;49.540;8.364;2022-09-30T15:09:19;19.60;99.90
12520;DHT22;6325;49.540;8.364;2022-09-30T15:11:47;20.60;99.90
12520;DHT22;6325;49.540;8.364;2022-09-30T15:14:16;21.20;99.90
12520;DHT22;6325;49.540;8.364;2022-09-30T15:16:47;21.00;99.90
12520;DHT22;6325;49.540;8.364;2022-09-30T15:19:19;21.10;99.90
12520;DHT22;6325;49.540;8.364;2022-09-30T15:21:47;20.30;99.90
12520;DHT22;6325;49.540;8.364;2022-09-30T15:24:16;19.70;99.90
12520;DHT22;6325;49.540;8.364;2022-09-30T15:26:44;20.10;99.90
12520;DHT22;6325;49.540;8.364;2022-09-30T15:29:13;19.80;99.90
12520;DHT22;6325;49.540;8.364;2022-09-30T15:31:44;19.20;99.90
12520;DHT22;6325;49.540;8.364;2022-09-30T15:34:17;19.40;99.90
12520;DHT22;6325;49.540;8.364;2022-09-30T15:36:46;19.80;99.90
12520;DHT22;6325;49.540;8.364;2022-09-30T15:39:21;19.90;99.90
12520;DHT22;6325;49.540;8.364;2022-09-30T15:41:50;21.00;99.90
12520;DHT22;6325;49.540;8.364;2022-09-30T15:44:18;21.20;99.90
12520;DHT22;6325;49.540;8.364;2022-09-30T15:47:02;21.80;99.90
12520;DHT22;6325;49.540;8.364;2022-09-30T15:49:43;22.60;99.90
12520;DHT22;6325;49.540;8.364;2022-09-30T15:52:29;21.90;99.90
12520;DHT22;6325;49.540;8.364;2022-09-30T15:55:02;21.20;99.90
12520;DHT22;6325;49.540;8.364;2022-09-30T15:57:49;19.50;99.90
12520;DHT22;6325;49.540;8.364;2022-09-30T16:00:31;19.30;99.90
12520;DHT22;6325;49.540;8.364;2022-09-30T16:03:06;19.00;99.90
12520;DHT22;6325;49.540;8.364;2022-09-30T16:05:39;18.80;99.90
12520;DHT22;6325;49.540;8.364;2022-09-30T16:08:07;18.00;99.90
12520;DHT22;6325;49.540;8.364;2022-09-30T16:10:35;18.10;99.90
12520;DHT22;6325;49.540;8.364;2022-09-30T16:13:04;17.30;99.90
12520;DHT22;6325;49.540;8.364;2022-09-30T16:15:36;17.80;99.90
12520;DHT22;6325;49.540;8.364;2022-09-30T16:18:05;17.50;99.90
12520;DHT22;6325;49.540;8.364;2022-09-30T16:20:55;17.40;99.90
12520;DHT22;6325;49.540;8.364;2022-09-30T16:23:29;17.60;99.90
12520;DHT22;6325;49.540;8.364;2022-09-30T16:26:27;17.20;99.90
12520;DHT22;6325;49.540;8.364;2022-09-30T16:28:54;17.10;99.90
12520;DHT22;6325;49.540;8.364;2022-09-30T16:31:27;16.90;99.90
12520;DHT22;6325;49.540;8.364;2022-09-30T16:33:55;16.80;99.90
12520;DHT22;6325;49.540;8.364;2022-09-30T16:36:23;17.10;99.90
12520;DHT22;6325;49.540;8.364;2022-09-30T16:38:50;16.80;99.90
12520;DHT22;6325;49.540;8.364;2022-09-30T16:41:18;17.00;99.90
12520;DHT22;6325;49.540;8.364;2022-09-30T16:43:45;16.50;99.90
12520;DHT22;6325;49.540;8.364;2022-09-30T16:46:11;16.30;99.90
12520;DHT22;6325;49.540;8.364;2022-09-30T16:48:39;16.40;99.90
12520;DHT22;6325;49.540;8.364;2022-09-30T16:51:10;16.10;99.90
12520;DHT22;6325;49.540;8.364;2022-09-30T16:53:39;15.70;99.90
12520;DHT22;6325;49.540;8.364;2022-09-30T16:56:12;15.70;99.90